Time,TemperatureF,DewpointF,PressureIn,WindDirection,WindDirectionDegrees,WindSpeedMPH,WindSpeedGustMPH,Humidity,HourlyPrecipIn,Conditions,Clouds,dailyrainin,SoftwareType,DateUTC
2013-01-21 00:03:00,21.7,-11.3,30.05,SW,225,0.0,1.0,22,0.00,CLR,CLR,0.00,WeatherDisplay:10.37,2013-01-21 05:03:00,
2013-01-21 00:18:00,22.1,-11.0,30.08,WSW,248,0.0,2.0,22,0.00,CLR,CLR,0.00,WeatherDisplay:10.37,2013-01-21 05:18:00,
2013-01-21 00:33:00,22.5,-10.7,30.08,West,270,2.0,3.0,22,0.00,CLR,CLR,0.00,WeatherDisplay:10.37,2013-01-21 05:33:00,
2013-01-21 00:48:00,23.0,-10.3,30.05,West,270,2.0,3.0,22,0.00,CLR,CLR,0.00,WeatherDisplay:10.37,2013-01-21 05:48:00,
2013-01-21 01:03:00,22.8,-10.4,30.08,WSW,245,3.0,4.0,22,0.00,CLR,CLR,0.00,WeatherDisplay:10.37,2013-01-21 06:03:00,
2013-01-21 01:18:00,22.8,-10.4,30.08,WSW,248,3.0,4.0,22,0.00,CLR,CLR,0.00,WeatherDisplay:10.37,2013-01-21 06:18:00,
2013-01-21 01:33:00,22.6,-10.6,30.08,West,268,2.0,4.0,22,0.00,CLR,CLR,0.00,WeatherDisplay:10.37,2013-01-21 06:33:00,
2013-01-21 01:48:00,22.8,-10.4,30.05,West,261,2.0,4.0,22,0.00,CLR,CLR,0.00,WeatherDisplay:10.37,2013-01-21 06:48:00,
2013-01-21 02:03:00,23.2,-10.1,30.08,West,268,3.0,5.0,22,0.00,CLR,CLR,0.00,WeatherDisplay:10.37,2013-01-21 07:03:00,
2013-01-21 02:18:00,23.2,-10.1,30.08,West,277,5.0,6.0,22,0.00,CLR,CLR,0.00,WeatherDisplay:10.37,2013-01-21 07:18:00,
2013-01-21 02:33:00,23.5,-9.8,30.08,West,268,5.0,8.0,22,0.00,CLR,CLR,0.00,WeatherDisplay:10.37,2013-01-21 07:33:00,
2013-01-21 02:48:00,23.4,-10.0,30.08,West,272,6.0,10.0,22,0.00,CLR,CLR,0.00,WeatherDisplay:10.37,2013-01-21 07:48:00,
2013-01-21 03:01:00,49.5,41.5,29.91,NNE,14,0.0,5.0,74,0.00,CL,CL,0.00,WeatherDisplay:10.37,2013-01-21 08:01:00,
2013-01-21 03:03:00,23.0,9.2,30.08,WNW,286,6.0,6.0,55,0.00,CLR,CLR,0.00,WeatherDisplay:10.37,2013-01-21 08:03:00,
2013-01-21 03:10:00,43.7,43.7,30.02,North,4,0.0,1.0,100,0.00,CL,CL,0.00,WeatherDisplay:10.37,2013-01-21 08:10:00,
2013-01-21 04:09:00,44.4,44.4,30.02,North,4,0.0,1.0,100,0.00,CL,CL,0.00,WeatherDisplay:10.37,2013-01-21 09:09:00,
2013-01-21 04:10:00,45.1,45.1,29.99,North,4,0.0,1.0,100,0.00,CL,CL,0.00,WeatherDisplay:10.37,2013-01-21 09:10:00,
2013-01-21 05:09:00,49.5,47.8,30.02,North,7,1.0,2.0,94,0.00,CL,CL,0.00,WeatherDisplay:10.37,2013-01-21 10:09:00,
2013-01-21 05:10:00,50.7,48.5,30.05,North,7,1.0,2.0,92,0.00,CL,CL,0.00,WeatherDisplay:10.37,2013-01-21 10:10:00,
2013-01-21 06:10:00,58.6,48.8,30.05,North,8,3.0,3.0,70,0.00,CL,CL,0.00,WeatherDisplay:10.37,2013-01-21 11:10:00,
2013-01-21 07:10:00,66.7,52.9,30.05,North,8,6.0,7.0,61,0.00,CL,CL,0.00,WeatherDisplay:10.37,2013-01-21 12:10:00,
2013-01-21 08:02:00,23.0,9.2,30.08,West,270,10.3,10.3,55,0.00,CLR,,0.00,WeatherDisplay:10.37,2013-01-21 13:02:00,
2013-01-21 08:03:00,23.0,9.2,30.11,West,270,5.8,5.8,55,0.00,CLR,,0.00,WeatherDisplay:10.37,2013-01-21 13:03:00,
2013-01-21 08:08:00,22.8,9.0,30.11,WNW,292,5.8,5.8,55,0.00,CLR,,0.00,WeatherDisplay:10.37,2013-01-21 13:08:00,
2013-01-21 08:10:00,71.2,56.6,30.05,North,9,6.0,8.0,60,0.00,CL,CL,0.00,WeatherDisplay:10.37,2013-01-21 13:10:00,
2013-01-21 08:13:00,22.8,9.0,30.11,West,270,5.8,5.8,55,0.00,CLR,,0.00,WeatherDisplay:10.37,2013-01-21 13:13:00,
2013-01-21 08:18:00,22.8,9.0,30.11,West,270,6.9,6.9,55,0.00,SCT,,0.00,WeatherDisplay:10.37,2013-01-21 13:18:00,
2013-01-21 08:23:00,22.8,9.0,30.11,West,270,6.9,6.9,55,0.00,SCT,,0.00,WeatherDisplay:10.37,2013-01-21 13:23:00,
2013-01-21 08:28:00,22.8,9.0,30.11,WNW,292,5.8,5.8,55,0.00,SCT,,0.00,WeatherDisplay:10.37,2013-01-21 13:28:00,
2013-01-21 08:33:00,22.8,10.2,30.11,WNW,292,5.8,5.8,58,0.00,SCT,,0.00,WeatherDisplay:10.37,2013-01-21 13:33:00,
2013-01-21 08:38:00,23.0,10.4,30.11,West,270,4.9,4.9,58,0.00,SCT,,0.00,WeatherDisplay:10.37,2013-01-21 13:38:00,
2013-01-21 08:43:00,23.0,10.4,30.11,West,270,9.2,9.2,58,0.00,SCT,,0.00,WeatherDisplay:10.37,2013-01-21 13:43:00,
2013-01-21 08:48:00,23.4,10.4,30.11,West,270,6.9,6.9,57,0.00,SCT,,0.00,WeatherDisplay:10.37,2013-01-21 13:48:00,
2013-01-21 08:53:00,23.4,9.6,30.11,West,270,8.1,8.1,55,0.00,SCT,,0.00,WeatherDisplay:10.37,2013-01-21 13:53:00,
2013-01-21 08:58:00,23.5,10.5,30.11,WNW,292,8.1,8.1,57,0.00,SCT,,0.00,WeatherDisplay:10.37,2013-01-21 13:58:00,
2013-01-21 09:03:00,23.5,10.5,30.11,WNW,292,6.9,6.9,57,0.00,SCT,,0.00,WeatherDisplay:10.37,2013-01-21 14:03:00,
2013-01-21 09:08:00,23.7,10.7,30.11,WNW,292,6.9,6.9,57,0.00,SCT,,0.00,WeatherDisplay:10.37,2013-01-21 14:08:00,
2013-01-21 09:10:00,75.0,59.7,30.02,North,6,3.0,3.0,59,0.00,CL,CL,0.00,WeatherDisplay:10.37,2013-01-21 14:10:00,
2013-01-21 09:13:00,24.1,11.0,30.11,West,270,10.7,10.7,57,0.00,SCT,,0.00,WeatherDisplay:10.37,2013-01-21 14:13:00,
2013-01-21 09:18:00,24.4,11.4,30.11,West,270,5.9,5.9,57,0.00,SCT,,0.00,WeatherDisplay:10.37,2013-01-21 14:18:00,
2013-01-21 09:23:00,24.4,10.6,30.11,West,270,10.4,10.4,55,0.00,SCT,,0.00,WeatherDisplay:10.37,2013-01-21 14:23:00,
2013-01-21 09:28:00,24.4,10.6,30.11,West,270,9.2,9.2,55,0.00,SCT,,0.00,WeatherDisplay:10.37,2013-01-21 14:28:00,
2013-01-21 09:33:00,24.4,10.6,30.14,NW,315,5.8,6.2,55,0.00,SCT,,0.00,WeatherDisplay:10.37,2013-01-21 14:33:00,
2013-01-21 09:38:00,24.4,10.6,30.14,WNW,292,10.4,10.4,55,0.00,SCT,,0.00,WeatherDisplay:10.37,2013-01-21 14:38:00,
2013-01-21 09:43:00,24.4,10.6,30.14,West,270,12.7,12.7,55,0.00,SCT,,0.00,WeatherDisplay:10.37,2013-01-21 14:43:00,
2013-01-21 09:48:00,24.6,10.7,30.14,West,270,13.8,13.8,55,0.00,SCT,,0.00,WeatherDisplay:10.37,2013-01-21 14:48:00,
2013-01-21 09:53:00,24.6,10.7,30.14,West,270,8.1,8.1,55,0.00,SCT,,0.00,WeatherDisplay:10.37,2013-01-21 14:53:00,
2013-01-21 09:59:00,25.0,10.7,30.14,West,270,10.4,10.4,54,0.00,SCT,,0.00,WeatherDisplay:10.37,2013-01-21 14:59:00,
2013-01-21 10:04:00,25.3,11.0,30.14,WNW,292,11.5,11.5,54,0.00,SCT,,0.00,WeatherDisplay:10.37,2013-01-21 15:04:00,
2013-01-21 10:09:00,25.0,10.7,30.14,West,270,16.1,16.1,54,0.00,SCT,,0.00,WeatherDisplay:10.37,2013-01-21 15:09:00,
2013-01-21 10:10:00,77.0,61.6,30.02,North,6,3.0,3.0,59,0.00,CL,CL,0.00,WeatherDisplay:10.37,2013-01-21 15:10:00,
2013-01-21 10:14:00,25.2,10.8,30.14,NW,315,15.0,15.0,54,0.00,SCT,,0.00,WeatherDisplay:10.37,2013-01-21 15:14:00,
2013-01-21 10:19:00,25.7,11.3,30.14,WNW,292,8.1,8.1,54,0.00,SCT,,0.00,WeatherDisplay:10.37,2013-01-21 15:19:00,
2013-01-21 10:24:00,25.3,11.0,30.14,WNW,292,12.7,12.7,54,0.00,SCT,,0.00,WeatherDisplay:10.37,2013-01-21 15:24:00,
2013-01-21 10:29:00,25.9,11.5,30.14,WNW,292,12.7,12.7,54,0.00,SCT,,0.00,WeatherDisplay:10.37,2013-01-21 15:29:00,
2013-01-21 10:34:00,25.7,11.3,30.14,West,270,10.4,10.4,54,0.00,BKN,,0.00,WeatherDisplay:10.37,2013-01-21 15:34:00,
2013-01-21 10:39:00,25.5,11.2,30.14,West,270,11.5,11.5,54,0.00,BKN,,0.00,WeatherDisplay:10.37,2013-01-21 15:39:00,
2013-01-21 10:44:00,25.3,11.0,30.14,West,270,11.5,11.5,54,0.00,BKN,,0.00,WeatherDisplay:10.37,2013-01-21 15:44:00,
2013-01-21 10:49:00,26.2,11.8,30.14,West,270,10.4,10.4,54,0.00,BKN,,0.00,WeatherDisplay:10.37,2013-01-21 15:49:00,
2013-01-21 10:54:00,27.5,13.0,30.14,NW,315,6.9,6.9,54,0.00,BKN,,0.00,WeatherDisplay:10.37,2013-01-21 15:54:00,
2013-01-21 10:59:00,27.1,12.7,30.14,West,270,11.2,11.2,54,0.00,BKN,,0.00,WeatherDisplay:10.37,2013-01-21 15:59:00,
2013-01-21 11:04:00,27.5,13.0,30.14,WSW,248,8.1,8.1,54,0.00,BKN,,0.00,WeatherDisplay:10.37,2013-01-21 16:04:00,
2013-01-21 11:09:00,25.9,11.5,30.14,West,270,13.8,13.8,54,0.00,BKN,,0.00,WeatherDisplay:10.37,2013-01-21 16:09:00,
2013-01-21 11:10:00,78.2,63.7,29.99,North,9,2.0,7.0,61,0.00,CL,CL,0.00,WeatherDisplay:10.37,2013-01-21 16:10:00,
2013-01-21 11:14:00,27.9,13.3,30.14,WNW,292,10.4,10.4,54,0.00,BKN,,0.00,WeatherDisplay:10.37,2013-01-21 16:14:00,
2013-01-21 11:19:00,27.5,13.0,30.14,WSW,248,16.8,16.8,54,0.00,SCT,,0.00,WeatherDisplay:10.37,2013-01-21 16:19:00,
2013-01-21 11:24:00,27.9,13.3,30.14,WSW,248,13.8,13.8,54,0.00,SCT,,0.00,WeatherDisplay:10.37,2013-01-21 16:24:00,
2013-01-21 11:29:00,27.9,13.3,30.14,West,270,9.2,9.2,54,0.00,SCT,,0.00,WeatherDisplay:10.37,2013-01-21 16:29:00,
2013-01-21 11:34:00,27.9,13.3,30.11,NW,315,13.8,13.8,54,0.00,SCT,,0.00,WeatherDisplay:10.37,2013-01-21 16:34:00,
2013-01-21 11:39:00,27.5,13.0,30.11,West,270,19.6,19.6,54,0.00,SCT,,0.00,WeatherDisplay:10.37,2013-01-21 16:39:00,
2013-01-21 11:44:00,29.1,14.1,30.11,West,270,12.7,12.7,53,0.00,SCT,,0.00,WeatherDisplay:10.37,2013-01-21 16:44:00,
2013-01-21 11:49:00,28.0,13.5,30.11,WSW,248,16.3,16.3,54,0.00,SCT,,0.00,WeatherDisplay:10.37,2013-01-21 16:49:00,
2013-01-21 11:54:00,29.3,14.3,30.11,West,270,17.3,17.3,53,0.00,SCT,,0.00,WeatherDisplay:10.37,2013-01-21 16:54:00,
2013-01-21 11:59:00,29.1,14.1,30.11,West,270,12.1,12.1,53,0.00,SCT,,0.00,WeatherDisplay:10.37,2013-01-21 16:59:00,
2013-01-21 12:04:00,28.6,13.6,30.11,West,270,23.0,23.0,53,0.00,SCT,,0.00,WeatherDisplay:10.37,2013-01-21 17:04:00,
2013-01-21 12:09:00,29.5,14.4,30.11,West,270,14.3,14.3,53,0.00,SCT,,0.00,WeatherDisplay:10.37,2013-01-21 17:09:00,
2013-01-21 12:10:00,77.9,63.3,29.96,North,10,5.0,5.0,61,0.00,CL,CL,0.00,WeatherDisplay:10.37,2013-01-21 17:10:00,
2013-01-21 12:14:00,28.4,13.9,30.11,WSW,248,19.6,19.6,54,0.00,SCT,,0.00,WeatherDisplay:10.37,2013-01-21 17:14:00,
2013-01-21 12:19:00,31.3,16.1,30.11,West,270,10.4,10.4,53,0.00,SCT,,0.00,WeatherDisplay:10.37,2013-01-21 17:19:00,
2013-01-21 12:24:00,31.1,15.9,30.11,SW,225,13.8,13.8,53,0.00,SCT,,0.00,WeatherDisplay:10.37,2013-01-21 17:24:00,
2013-01-21 12:29:00,29.5,14.4,30.11,West,270,17.3,17.3,53,0.00,SCT,,0.00,WeatherDisplay:10.37,2013-01-21 17:29:00,
2013-01-21 12:34:00,30.2,15.1,30.08,SW,225,12.7,12.7,53,0.00,SCT,,0.00,WeatherDisplay:10.37,2013-01-21 17:34:00,
2013-01-21 12:39:00,30.2,15.1,30.08,West,270,12.7,12.7,53,0.00,SCT,,0.00,WeatherDisplay:10.37,2013-01-21 17:39:00,
2013-01-21 12:44:00,30.2,15.1,30.08,West,270,16.1,16.1,53,0.00,SCT,,0.00,WeatherDisplay:10.37,2013-01-21 17:44:00,
2013-01-21 12:49:00,30.2,15.1,30.08,WSW,248,17.3,17.3,53,0.00,SCT,,0.00,WeatherDisplay:10.37,2013-01-21 17:49:00,
2013-01-21 12:54:00,29.7,14.6,30.08,West,270,23.5,23.5,53,0.00,SCT,,0.00,WeatherDisplay:10.37,2013-01-21 17:54:00,
2013-01-21 12:59:00,30.2,15.1,30.08,West,270,15.0,15.0,53,0.00,SCT,,0.00,WeatherDisplay:10.37,2013-01-21 17:59:00,
2013-01-21 13:04:00,29.8,14.8,30.05,West,270,19.6,19.6,53,0.00,CLR,,0.00,WeatherDisplay:10.37,2013-01-21 18:04:00,
2013-01-21 13:09:00,30.0,14.9,30.05,West,270,19.6,19.6,53,0.00,CLR,,0.00,WeatherDisplay:10.37,2013-01-21 18:09:00,
2013-01-21 13:10:00,73.9,58.7,29.99,North,6,2.0,2.0,59,0.00,CL,CL,0.00,WeatherDisplay:10.37,2013-01-21 18:10:00,
2013-01-21 13:14:00,30.7,15.6,30.05,West,270,15.0,15.0,53,0.00,CLR,,0.00,WeatherDisplay:10.37,2013-01-21 18:14:00,
2013-01-21 13:19:00,30.6,15.4,30.05,WSW,248,18.4,18.4,53,0.00,CLR,,0.00,WeatherDisplay:10.37,2013-01-21 18:19:00,
2013-01-21 13:24:00,30.9,15.8,30.05,West,270,20.7,20.7,53,0.00,CLR,,0.00,WeatherDisplay:10.37,2013-01-21 18:24:00,
2013-01-21 13:29:00,30.6,15.4,30.05,West,270,15.0,15.0,53,0.00,CLR,,0.00,WeatherDisplay:10.37,2013-01-21 18:29:00,
2013-01-21 13:34:00,31.1,15.9,30.05,WNW,292,20.7,20.7,53,0.00,CLR,,0.00,WeatherDisplay:10.37,2013-01-21 18:34:00,
2013-01-21 13:39:00,30.7,15.6,30.05,WSW,248,25.3,25.3,53,0.00,CLR,,0.00,WeatherDisplay:10.37,2013-01-21 18:39:00,
2013-01-21 13:44:00,30.7,15.6,30.05,West,270,16.1,16.1,53,0.00,CLR,,0.00,WeatherDisplay:10.37,2013-01-21 18:44:00,
2013-01-21 13:49:00,30.9,15.8,30.08,WNW,292,10.4,10.4,53,0.00,CLR,,0.00,WeatherDisplay:10.37,2013-01-21 18:49:00,
2013-01-21 13:54:00,30.2,15.1,30.08,WSW,248,19.6,19.6,53,0.00,CLR,,0.00,WeatherDisplay:10.37,2013-01-21 18:54:00,
2013-01-21 13:59:00,31.3,16.1,30.08,West,270,10.4,10.4,53,0.00,CLR,,0.00,WeatherDisplay:10.37,2013-01-21 18:59:00,
2013-01-21 14:02:00,68.0,54.0,29.99,North,8,1.0,1.0,61,0.00,CL,CL,0.00,WeatherDisplay:10.37,2013-01-21 19:02:00,
2013-01-21 14:04:00,30.6,15.4,30.08,West,270,17.3,17.3,53,0.00,CLR,,0.00,WeatherDisplay:10.37,2013-01-21 19:04:00,
2013-01-21 14:09:00,30.7,15.6,30.08,WNW,292,16.1,16.1,53,0.00,CLR,,0.00,WeatherDisplay:10.37,2013-01-21 19:09:00,
2013-01-21 14:10:00,66.9,53.0,29.99,North,8,1.0,1.0,61,0.00,CL,CL,0.00,WeatherDisplay:10.37,2013-01-21 19:10:00,
2013-01-21 14:14:00,31.1,15.9,30.08,West,270,19.6,19.6,53,0.00,CLR,,0.00,WeatherDisplay:10.37,2013-01-21 19:14:00,
2013-01-21 14:19:00,30.6,15.4,30.08,West,270,15.0,15.0,53,0.00,CLR,,0.00,WeatherDisplay:10.37,2013-01-21 19:19:00,
2013-01-21 14:24:00,31.6,16.4,30.08,West,270,16.6,16.6,53,0.00,CLR,,0.00,WeatherDisplay:10.37,2013-01-21 19:24:00,
2013-01-21 14:29:00,30.7,15.6,30.08,NW,315,21.9,21.9,53,0.00,CLR,,0.00,WeatherDisplay:10.37,2013-01-21 19:29:00,
2013-01-21 14:34:00,30.0,14.9,30.08,West,270,27.0,27.0,53,0.00,CLR,,0.00,WeatherDisplay:10.37,2013-01-21 19:34:00,
2013-01-21 14:39:00,30.4,15.3,30.08,West,270,20.7,20.7,53,0.00,CLR,,0.00,WeatherDisplay:10.37,2013-01-21 19:39:00,
2013-01-21 14:44:00,30.9,15.8,30.08,West,270,8.7,8.7,53,0.00,CLR,,0.00,WeatherDisplay:10.37,2013-01-21 19:44:00,
2013-01-21 14:49:00,30.2,15.1,30.08,West,270,12.7,12.7,53,0.00,CLR,,0.00,WeatherDisplay:10.37,2013-01-21 19:49:00,
2013-01-21 14:54:00,30.9,15.8,30.08,West,270,11.5,11.5,53,0.00,CLR,,0.00,WeatherDisplay:10.37,2013-01-21 19:54:00,
2013-01-21 14:59:00,30.7,15.6,30.08,WNW,292,12.7,12.7,53,0.00,CLR,,0.00,WeatherDisplay:10.37,2013-01-21 19:59:00,
2013-01-21 15:04:00,30.7,15.6,30.08,West,270,13.8,13.8,53,0.00,CLR,,0.00,WeatherDisplay:10.37,2013-01-21 20:04:00,
2013-01-21 15:09:00,31.5,16.3,30.08,NW,315,9.8,9.8,53,0.00,CLR,,0.00,WeatherDisplay:10.37,2013-01-21 20:09:00,
2013-01-21 15:10:00,63.3,50.1,29.99,North,8,1.0,1.0,62,0.00,CL,CL,0.00,WeatherDisplay:10.37,2013-01-21 20:10:00,
2013-01-21 15:14:00,30.9,17.0,30.08,West,270,13.0,13.0,56,0.00,CLR,,0.00,WeatherDisplay:10.37,2013-01-21 20:14:00,
2013-01-21 15:19:00,31.5,16.3,30.08,West,270,9.8,9.8,53,0.00,CLR,,0.00,WeatherDisplay:10.37,2013-01-21 20:19:00,
2013-01-21 15:24:00,31.1,17.2,30.08,North,0,11.5,11.5,56,0.00,CLR,,0.00,WeatherDisplay:10.37,2013-01-21 20:24:00,
2013-01-21 15:29:00,30.9,15.8,30.08,West,270,10.4,10.4,53,0.00,CLR,,0.00,WeatherDisplay:10.37,2013-01-21 20:29:00,
2013-01-21 15:34:00,30.7,17.7,30.08,NW,315,12.7,0.0,58,0.00,CLR,,0.00,WeatherDisplay:10.37,2013-01-21 20:34:00,
2013-01-21 15:39:00,30.9,25.2,30.08,NW,315,9.2,9.2,79,0.00,CLR,,0.00,WeatherDisplay:10.37,2013-01-21 20:39:00,
2013-01-21 15:44:00,29.8,7.3,30.08,WSW,248,11.5,11.5,38,0.00,CLR,,0.00,WeatherDisplay:10.37,2013-01-21 20:44:00,
2013-01-21 15:49:00,30.6,5.5,30.11,West,270,12.8,12.8,34,0.00,CLR,,0.00,WeatherDisplay:10.37,2013-01-21 20:49:00,
2013-01-21 15:54:00,30.0,4.3,30.11,West,270,15.0,15.0,33,0.00,CLR,,0.00,WeatherDisplay:10.37,2013-01-21 20:54:00,
2013-01-21 15:59:00,30.0,4.3,30.11,West,270,10.4,10.4,33,0.00,CLR,,0.00,WeatherDisplay:10.37,2013-01-21 20:59:00,
2013-01-21 16:04:00,29.7,4.0,30.11,West,270,17.6,17.6,33,0.00,CLR,,0.00,WeatherDisplay:10.37,2013-01-21 21:04:00,
2013-01-21 16:09:00,29.7,9.3,30.11,WNW,292,12.7,12.7,42,0.00,CLR,,0.00,WeatherDisplay:10.37,2013-01-21 21:09:00,
2013-01-21 16:10:00,60.6,48.0,30.02,North,8,1.0,1.0,63,0.00,CL,CL,0.00,WeatherDisplay:10.37,2013-01-21 21:10:00,
2013-01-21 16:14:00,29.3,9.0,30.11,West,270,13.8,13.8,42,0.00,CLR,,0.00,WeatherDisplay:10.37,2013-01-21 21:14:00,
2013-01-21 16:19:00,29.5,-17.0,30.11,West,270,16.3,16.3,12,0.00,CLR,,0.00,WeatherDisplay:10.37,2013-01-21 21:19:00,
2013-01-21 16:24:00,29.7,4.0,30.11,West,270,12.7,12.7,33,0.00,CLR,,0.00,WeatherDisplay:10.37,2013-01-21 21:24:00,
2013-01-21 16:29:00,28.9,3.4,30.11,West,270,10.4,10.4,33,0.00,CLR,,0.00,WeatherDisplay:10.37,2013-01-21 21:29:00,
2013-01-21 16:34:00,28.6,3.1,30.11,West,270,15.0,15.0,33,0.00,CLR,,0.00,WeatherDisplay:10.37,2013-01-21 21:34:00,
2013-01-21 16:39:00,28.2,3.4,30.11,West,270,11.5,11.5,34,0.00,CLR,,0.00,WeatherDisplay:10.37,2013-01-21 21:39:00,
2013-01-21 16:44:00,27.9,3.1,30.11,West,270,10.5,10.5,34,0.00,CLR,,0.00,WeatherDisplay:10.37,2013-01-21 21:44:00,
2013-01-21 16:49:00,28.0,3.2,30.11,WNW,292,13.8,13.8,34,0.00,CLR,,0.00,WeatherDisplay:10.37,2013-01-21 21:49:00,
2013-01-21 16:54:00,27.9,3.1,30.11,West,270,9.2,9.2,34,0.00,CLR,,0.00,WeatherDisplay:10.37,2013-01-21 21:54:00,
2013-01-21 16:59:00,28.4,3.6,30.11,West,270,9.8,9.8,34,0.00,CLR,,0.00,WeatherDisplay:10.37,2013-01-21 21:59:00,
2013-01-21 17:04:00,27.9,3.1,30.11,WSW,248,10.4,10.4,34,0.00,CLR,,0.00,WeatherDisplay:10.37,2013-01-21 22:04:00,
2013-01-21 17:09:00,27.0,2.3,30.11,West,270,11.4,11.4,34,0.00,CLR,,0.00,WeatherDisplay:10.37,2013-01-21 22:09:00,
2013-01-21 17:10:00,60.4,47.8,30.02,North,8,1.0,1.0,63,0.00,CL,CL,0.00,WeatherDisplay:10.37,2013-01-21 22:10:00,
2013-01-21 17:14:00,27.3,2.6,30.11,West,270,6.9,7.4,34,0.00,CLR,,0.00,WeatherDisplay:10.37,2013-01-21 22:14:00,
2013-01-21 17:19:00,26.8,2.1,30.11,West,270,15.0,15.0,34,0.00,CLR,,0.00,WeatherDisplay:10.37,2013-01-21 22:19:00,
2013-01-21 17:24:00,26.2,1.6,30.11,West,270,12.7,12.7,34,0.00,CLR,,0.00,WeatherDisplay:10.37,2013-01-21 22:24:00,
2013-01-21 17:29:00,26.1,1.5,30.11,WNW,292,10.4,10.4,34,0.00,CLR,,0.00,WeatherDisplay:10.37,2013-01-21 22:29:00,
2013-01-21 17:34:00,25.3,0.8,30.14,WSW,248,15.0,15.0,34,0.00,CLR,,0.00,WeatherDisplay:10.37,2013-01-21 22:34:00,
2013-01-21 17:39:00,25.2,0.7,30.14,West,270,10.4,10.4,34,0.00,CLR,,0.00,WeatherDisplay:10.37,2013-01-21 22:39:00,
2013-01-21 17:44:00,25.0,0.5,30.14,West,270,15.0,15.0,34,0.00,CLR,,0.00,WeatherDisplay:10.37,2013-01-21 22:44:00,
2013-01-21 17:49:00,24.4,0.7,30.14,NW,315,9.2,9.2,35,0.00,CLR,,0.00,WeatherDisplay:10.37,2013-01-21 22:49:00,
2013-01-21 17:54:00,23.9,0.2,30.14,West,270,8.1,8.1,35,0.00,CLR,,0.00,WeatherDisplay:10.37,2013-01-21 22:54:00,
2013-01-21 17:59:00,23.7,0.0,30.14,WNW,292,9.0,9.0,35,0.00,CLR,,0.00,WeatherDisplay:10.37,2013-01-21 22:59:00,
2013-01-21 18:04:00,23.4,-0.3,30.14,West,270,6.9,6.9,35,0.00,CLR,,0.00,WeatherDisplay:10.37,2013-01-21 23:04:00,
2013-01-21 18:09:00,23.2,-0.5,30.14,WNW,292,6.9,6.9,35,0.00,CLR,,0.00,WeatherDisplay:10.37,2013-01-21 23:09:00,
2013-01-21 18:14:00,23.0,-0.6,30.14,West,270,12.7,12.7,35,0.00,CLR,,0.00,WeatherDisplay:10.37,2013-01-21 23:14:00,
2013-01-21 18:18:00,17.6,-14.0,30.17,WNW,301,2.0,4.0,23,0.00,CLR,CLR,0.00,WeatherDisplay:10.37,2013-01-21 23:18:00,
2013-01-21 18:19:00,22.8,-0.8,30.14,NW,315,8.1,8.1,35,0.00,CLR,,0.00,WeatherDisplay:10.37,2013-01-21 23:19:00,
2013-01-21 18:24:00,22.6,-1.0,30.14,WNW,292,8.1,8.1,35,0.00,CLR,,0.00,WeatherDisplay:10.37,2013-01-21 23:24:00,
2013-01-21 18:29:00,22.3,-1.3,30.14,WNW,292,12.7,12.7,35,0.00,CLR,,0.00,WeatherDisplay:10.37,2013-01-21 23:29:00,
2013-01-21 18:33:00,16.9,-14.6,30.20,WNW,289,3.0,6.0,23,0.00,CLR,CLR,0.00,WeatherDisplay:10.37,2013-01-21 23:33:00,
2013-01-21 18:34:00,22.3,-1.3,30.11,NW,315,7.1,7.1,35,0.00,CLR,,0.00,WeatherDisplay:10.37,2013-01-21 23:34:00,
2013-01-21 18:39:00,22.1,-1.4,30.11,NNW,338,5.8,5.8,35,0.00,CLR,,0.00,WeatherDisplay:10.37,2013-01-21 23:39:00,
2013-01-21 18:44:00,21.9,-1.6,30.11,NW,315,5.8,5.8,35,0.00,CLR,,0.00,WeatherDisplay:10.37,2013-01-21 23:44:00,
2013-01-21 18:48:00,16.7,-14.8,30.20,WNW,303,3.0,6.0,23,0.00,CLR,CLR,0.00,WeatherDisplay:10.37,2013-01-21 23:48:00,
2013-01-21 18:49:00,21.7,-1.8,30.14,West,270,8.1,8.1,35,0.00,CLR,,0.00,WeatherDisplay:10.37,2013-01-21 23:49:00,
2013-01-21 18:54:00,21.7,-1.8,30.14,NW,315,5.8,5.8,35,0.00,CLR,,0.00,WeatherDisplay:10.37,2013-01-21 23:54:00,
2013-01-21 18:59:00,21.4,-2.1,30.14,West,270,4.6,4.6,35,0.00,CLR,,0.00,WeatherDisplay:10.37,2013-01-21 23:59:00,
2013-01-21 19:03:00,16.2,-15.2,30.20,NW,316,3.0,4.0,23,0.00,CLR,CLR,0.00,WeatherDisplay:10.37,2013-01-22 00:03:00,
2013-01-21 19:04:00,21.2,-2.2,30.14,WNW,292,6.2,6.2,35,0.00,FEW,,0.00,WeatherDisplay:10.37,2013-01-22 00:04:00,
2013-01-21 19:09:00,21.2,-2.2,30.14,NW,315,3.5,3.5,35,0.00,FEW,,0.00,WeatherDisplay:10.37,2013-01-22 00:09:00,
2013-01-21 19:14:00,21.0,-2.4,30.14,NW,315,4.6,4.6,35,0.00,FEW,,0.00,WeatherDisplay:10.37,2013-01-22 00:14:00,
2013-01-21 19:18:00,15.8,-14.7,30.17,NW,325,1.0,5.0,24,0.00,CLR,CLR,0.00,WeatherDisplay:10.37,2013-01-22 00:18:00,
2013-01-21 19:19:00,21.0,-2.4,30.14,NW,315,4.6,4.6,35,0.00,FEW,,0.00,WeatherDisplay:10.37,2013-01-22 00:19:00,
2013-01-21 19:24:00,20.8,-2.6,30.14,WNW,292,4.6,4.6,35,0.00,FEW,,0.00,WeatherDisplay:10.37,2013-01-22 00:24:00,
2013-01-21 19:29:00,20.8,-2.6,30.14,West,270,3.5,3.5,35,0.00,FEW,,0.00,WeatherDisplay:10.37,2013-01-22 00:29:00,
2013-01-21 19:33:00,15.4,-15.0,30.20,NNW,341,2.0,4.0,24,0.00,CLR,CLR,0.00,WeatherDisplay:10.37,2013-01-22 00:33:00,
2013-01-21 19:34:00,20.8,-2.6,30.14,WNW,292,5.8,5.8,35,0.00,FEW,,0.00,WeatherDisplay:10.37,2013-01-22 00:34:00,
2013-01-21 19:39:00,20.7,-2.7,30.14,West,270,4.9,4.9,35,0.00,FEW,,0.00,WeatherDisplay:10.37,2013-01-22 00:39:00,
2013-01-21 19:44:00,20.7,-2.7,30.14,NW,315,6.9,6.9,35,0.00,FEW,,0.00,WeatherDisplay:10.37,2013-01-22 00:44:00,
2013-01-21 19:48:00,15.3,-15.2,30.20,NW,310,2.0,4.0,24,0.00,CLR,CLR,0.00,WeatherDisplay:10.37,2013-01-22 00:48:00,
2013-01-21 19:49:00,20.7,-2.7,30.14,NNW,338,12.1,12.1,35,0.00,FEW,,0.00,WeatherDisplay:10.37,2013-01-22 00:49:00,
2013-01-21 19:54:00,20.7,-2.7,30.14,NW,315,6.9,6.9,35,0.00,FEW,,0.00,WeatherDisplay:10.37,2013-01-22 00:54:00,
2013-01-21 19:59:00,20.7,-2.7,30.14,West,270,6.4,6.4,35,0.00,FEW,,0.00,WeatherDisplay:10.37,2013-01-22 00:59:00,
2013-01-21 20:03:00,14.9,-15.5,30.20,NW,317,1.0,3.0,24,0.00,CLR,CLR,0.00,WeatherDisplay:10.37,2013-01-22 01:03:00,
2013-01-21 20:04:00,20.7,-2.7,30.14,WNW,292,5.8,5.8,35,0.00,OVC,,0.00,WeatherDisplay:10.37,2013-01-22 01:04:00,
2013-01-21 20:09:00,20.5,-2.9,30.14,West,270,4.6,4.6,35,0.00,OVC,,0.00,WeatherDisplay:10.37,2013-01-22 01:09:00,
2013-01-21 20:14:00,20.5,-2.9,30.14,West,270,5.8,5.8,35,0.00,OVC,,0.00,WeatherDisplay:10.37,2013-01-22 01:14:00,
2013-01-21 20:18:00,14.4,-15.9,30.20,NW,307,2.0,4.0,24,0.00,CLR,CLR,0.00,WeatherDisplay:10.37,2013-01-22 01:18:00,
2013-01-21 20:19:00,20.3,-3.0,30.14,WNW,292,7.1,7.1,35,0.00,OVC,,0.00,WeatherDisplay:10.37,2013-01-22 01:19:00,
2013-01-21 20:24:00,20.3,-3.0,30.14,West,270,8.5,8.5,35,0.00,OVC,,0.00,WeatherDisplay:10.37,2013-01-22 01:24:00,
2013-01-21 20:29:00,20.3,-3.0,30.14,WNW,292,8.1,8.1,35,0.00,OVC,,0.00,WeatherDisplay:10.37,2013-01-22 01:29:00,
2013-01-21 20:33:00,14.0,-16.2,30.17,NW,322,0.0,2.0,24,0.00,CLR,CLR,0.00,WeatherDisplay:10.37,2013-01-22 01:33:00,
2013-01-21 20:34:00,20.3,-3.0,30.17,West,270,9.2,9.2,35,0.00,OVC,,0.00,WeatherDisplay:10.37,2013-01-22 01:34:00,
2013-01-21 20:39:00,20.1,-3.2,30.17,West,270,5.8,5.8,35,0.00,OVC,,0.00,WeatherDisplay:10.37,2013-01-22 01:39:00,
2013-01-21 20:44:00,20.1,-3.2,30.17,West,270,8.1,8.1,35,0.00,OVC,,0.00,WeatherDisplay:10.37,2013-01-22 01:44:00,
2013-01-21 20:48:00,14.0,-16.2,30.20,WNW,301,1.0,8.0,24,0.00,CLR,CLR,0.00,WeatherDisplay:10.37,2013-01-22 01:48:00,
2013-01-21 20:49:00,19.8,-3.5,30.17,WNW,292,3.5,3.5,35,0.00,OVC,,0.00,WeatherDisplay:10.37,2013-01-22 01:49:00,
2013-01-21 20:54:00,19.6,-3.7,30.17,WNW,292,3.5,3.5,35,0.00,OVC,,0.00,WeatherDisplay:10.37,2013-01-22 01:54:00,
2013-01-21 20:59:00,19.4,-3.3,30.17,WNW,292,5.8,5.8,36,0.00,OVC,,0.00,WeatherDisplay:10.37,2013-01-22 01:59:00,
2013-01-21 21:03:00,13.8,-16.4,30.20,WNW,296,2.0,6.0,24,0.00,CLR,CLR,0.00,WeatherDisplay:10.37,2013-01-22 02:03:00,
2013-01-21 21:04:00,19.4,-3.3,30.17,West,270,12.7,12.7,36,0.00,OVC,,0.00,WeatherDisplay:10.37,2013-01-22 02:04:00,
2013-01-21 21:09:00,19.4,-3.3,30.17,West,270,5.8,5.8,36,0.00,OVC,,0.00,WeatherDisplay:10.37,2013-01-22 02:09:00,
2013-01-21 21:14:00,19.2,-3.4,30.17,West,270,8.1,8.1,36,0.00,OVC,,0.00,WeatherDisplay:10.37,2013-01-22 02:14:00,
2013-01-21 21:18:00,13.6,-16.5,30.17,NNW,343,2.0,5.0,24,0.00,CLR,CLR,0.00,WeatherDisplay:10.37,2013-01-22 02:18:00,
2013-01-21 21:19:00,19.0,-3.6,30.17,West,270,10.4,10.4,36,0.00,OVC,,0.00,WeatherDisplay:10.37,2013-01-22 02:19:00,
2013-01-21 21:24:00,19.0,-3.6,30.17,West,270,3.8,3.8,36,0.00,OVC,,0.00,WeatherDisplay:10.37,2013-01-22 02:24:00,
2013-01-21 21:29:00,18.9,-3.7,30.17,West,270,7.4,7.4,36,0.00,OVC,,0.00,WeatherDisplay:10.37,2013-01-22 02:29:00,
2013-01-21 21:33:00,13.5,-16.7,30.20,NW,304,2.0,6.0,24,0.00,CLR,CLR,0.00,WeatherDisplay:10.37,2013-01-22 02:33:00,
2013-01-21 21:34:00,18.9,-3.7,30.20,West,270,4.6,4.6,36,0.00,OVC,,0.00,WeatherDisplay:10.37,2013-01-22 02:34:00,
2013-01-21 21:39:00,18.7,-3.9,30.20,West,270,5.8,5.8,36,0.00,OVC,,0.00,WeatherDisplay:10.37,2013-01-22 02:39:00,
2013-01-21 21:44:00,18.5,-4.1,30.20,WNW,292,2.3,2.3,36,0.00,OVC,,0.00,WeatherDisplay:10.37,2013-01-22 02:44:00,
2013-01-21 21:48:00,12.9,-17.2,30.20,West,277,2.0,4.0,24,0.00,CLR,CLR,0.00,WeatherDisplay:10.37,2013-01-22 02:48:00,
2013-01-21 21:49:00,18.3,-4.2,30.17,WNW,292,2.3,2.3,36,0.00,OVC,,0.00,WeatherDisplay:10.37,2013-01-22 02:49:00,
2013-01-21 21:54:00,18.3,-4.2,30.17,WNW,292,4.6,4.6,36,0.00,OVC,,0.00,WeatherDisplay:10.37,2013-01-22 02:54:00,
2013-01-21 21:59:00,18.3,-4.2,30.17,NNW,338,3.8,3.8,36,0.00,OVC,,0.00,WeatherDisplay:10.37,2013-01-22 02:59:00,
2013-01-21 22:03:00,12.6,-17.5,30.20,NW,304,1.0,3.0,24,0.00,CLR,CLR,0.00,WeatherDisplay:10.37,2013-01-22 03:03:00,
2013-01-21 22:04:00,18.5,-4.1,30.20,WNW,292,4.6,4.6,36,0.00,OVC,,0.00,WeatherDisplay:10.37,2013-01-22 03:04:00,
2013-01-21 22:09:00,18.5,-4.1,30.20,West,270,5.9,5.9,36,0.00,OVC,,0.00,WeatherDisplay:10.37,2013-01-22 03:09:00,
2013-01-21 22:14:00,18.7,-3.9,30.20,NNW,338,4.6,4.6,36,0.00,OVC,,0.00,WeatherDisplay:10.37,2013-01-22 03:14:00,
2013-01-21 22:19:00,18.7,-3.9,30.20,West,270,4.6,4.6,36,0.00,OVC,,0.00,WeatherDisplay:10.37,2013-01-22 03:19:00,
2013-01-21 22:24:00,18.7,-3.9,30.20,West,270,5.8,5.8,36,0.00,OVC,,0.00,WeatherDisplay:10.37,2013-01-22 03:24:00,
2013-01-21 22:29:00,18.7,-3.9,30.20,West,270,5.4,5.4,36,0.00,OVC,,0.00,WeatherDisplay:10.37,2013-01-22 03:29:00,
2013-01-21 22:34:00,18.7,-3.9,30.20,NW,315,5.8,5.8,36,0.00,OVC,,0.00,WeatherDisplay:10.37,2013-01-22 03:34:00,
2013-01-21 22:39:00,18.7,-3.9,30.20,West,270,5.8,5.8,36,0.00,OVC,,0.00,WeatherDisplay:10.37,2013-01-22 03:39:00,
2013-01-21 22:44:00,18.7,-3.9,30.20,West,270,4.9,4.9,36,0.00,OVC,,0.00,WeatherDisplay:10.37,2013-01-22 03:44:00,
2013-01-21 22:48:00,12.0,-17.9,30.20,NW,307,2.0,3.0,24,0.00,CLR,CLR,0.00,WeatherDisplay:10.37,2013-01-22 03:48:00,
2013-01-21 22:49:00,18.5,-4.1,30.17,NW,315,3.5,3.5,36,0.00,OVC,,0.00,WeatherDisplay:10.37,2013-01-22 03:49:00,
2013-01-21 22:54:00,18.5,-4.1,30.17,West,270,4.6,4.6,36,0.00,OVC,,0.00,WeatherDisplay:10.37,2013-01-22 03:54:00,
2013-01-21 22:59:00,18.3,-4.2,30.17,West,270,4.6,4.6,36,0.00,OVC,,0.00,WeatherDisplay:10.37,2013-01-22 03:59:00,
2013-01-21 23:03:00,11.8,-18.1,30.20,WNW,300,1.0,3.0,24,0.00,CLR,CLR,0.00,WeatherDisplay:10.37,2013-01-22 04:03:00,
2013-01-21 23:04:00,18.1,-4.4,30.20,West,270,5.8,5.8,36,0.00,OVC,,0.00,WeatherDisplay:10.37,2013-01-22 04:04:00,
2013-01-21 23:09:00,18.0,-4.5,30.20,WNW,292,7.6,7.6,36,0.00,OVC,,0.00,WeatherDisplay:10.37,2013-01-22 04:09:00,
2013-01-21 23:18:00,11.5,-18.4,30.20,NW,306,1.0,2.0,24,0.00,CLR,CLR,0.00,WeatherDisplay:10.37,2013-01-22 04:18:00,
2013-01-21 23:33:00,11.7,-18.3,30.20,NW,306,2.0,4.0,24,0.00,CLR,CLR,0.00,WeatherDisplay:10.37,2013-01-22 04:33:00,
2013-01-21 23:48:00,11.8,-18.1,30.20,WNW,302,1.0,4.0,24,0.00,CLR,CLR,0.00,WeatherDisplay:10.37,2013-01-22 04:48:00,